Time;durP1;ratioP1;P1;durP2;ratioP2;P2;SDS_P1;SDS_P2;PMS_P1;PMS_P2;Temp;Humidity;BMP_temperature;BMP_pressure;BME280_temperature;BME280_humidity;BME280_pressure;Samples;Min_cycle;Max_cycle;Signal;HPM_P1;HPM_P2
2022/05/28 00:00:12;;;;;;;5.35;2.53;;;;;;;10.55;72.02;102084.22;5050116;28;20504;-65
2022/05/28 00:02:38;;;;;;;9.15;2.97;;;;;;;10.55;72.23;102086.88;5050088;28;20051;-65
2022/05/28 00:05:04;;;;;;;9.57;3.08;;;;;;;10.48;72.61;102076.06;5049848;28;20025;-65
2022/05/28 00:07:29;;;;;;;9.50;2.42;;;;;;;10.50;72.63;102080.19;5068982;28;20044;-65
2022/05/28 00:09:55;;;;;;;12.13;2.60;;;;;;;10.49;72.44;102078.53;5069090;28;20024;-64
2022/05/28 00:12:31;;;;;;;10.98;3.75;;;;;;;10.47;73.16;102074.38;5068937;28;20946;-65
2022/05/28 00:14:57;;;;;;;14.73;3.33;;;;;;;10.39;72.87;102061.84;5068357;28;20040;-65
2022/05/28 00:17:23;;;;;;;8.60;2.75;;;;;;;10.44;73.04;102070.19;5068699;28;20490;-65
2022/05/28 00:19:49;;;;;;;13.90;3.65;;;;;;;10.45;73.07;102069.22;5069008;28;20036;-65
2022/05/28 00:22:15;;;;;;;12.95;3.88;;;;;;;10.47;73.32;102075.19;5068932;28;20032;-65
2022/05/28 00:24:40;;;;;;;12.60;3.03;;;;;;;10.49;73.21;102067.03;5068926;28;20162;-65
2022/05/28 00:27:06;;;;;;;8.85;4.63;;;;;;;10.49;73.30;102070.53;5068971;28;20048;-65
2022/05/28 00:29:31;;;;;;;9.63;2.90;;;;;;;10.47;73.69;102066.38;5068754;28;20075;-65
2022/05/28 00:31:57;;;;;;;10.70;2.60;;;;;;;10.52;73.73;102069.38;5068506;28;20028;-65
2022/05/28 00:34:22;;;;;;;11.65;3.65;;;;;;;10.53;73.34;102069.22;5050564;28;20039;-65
2022/05/28 00:36:47;;;;;;;11.82;2.97;;;;;;;10.56;73.52;102061.84;5068815;28;20042;-65
2022/05/28 00:39:13;;;;;;;11.02;4.38;;;;;;;10.52;73.36;102056.03;5068818;28;20032;-65
2022/05/28 00:41:38;;;;;;;8.65;3.72;;;;;;;10.60;73.47;102063.19;5068676;28;20024;-65
2022/05/28 00:44:05;;;;;;;9.93;3.25;;;;;;;10.65;73.40;102066.22;5069206;28;20135;-65
2022/05/28 00:46:31;;;;;;;13.00;3.65;;;;;;;10.71;73.78;102068.19;5058709;28;20036;-65
2022/05/28 00:49:00;;;;;;;13.35;4.15;;;;;;;10.70;73.32;102054.03;5049264;28;20041;-65
2022/05/28 00:51:29;;;;;;;10.25;3.80;;;;;;;10.77;73.30;102059.53;5050203;28;20079;-65
2022/05/28 00:54:04;;;;;;;14.15;3.63;;;;;;;10.81;73.31;102041.34;5053186;28;20036;-65
2022/05/28 00:56:30;;;;;;;8.95;3.13;;;;;;;10.81;73.44;102044.84;5053482;28;20032;-65
2022/05/28 00:58:56;;;;;;;10.68;3.15;;;;;;;10.81;73.33;102046.69;5053291;28;20388;-65
2022/05/28 01:01:25;;;;;;;9.48;2.85;;;;;;;10.84;73.54;102049.84;5052803;28;20036;-64
2022/05/28 01:04:14;;;;;;;5.97;2.60;;;;;;;10.86;73.40;102053.19;5053238;28;20020;-65
2022/05/28 01:06:50;;;;;;;12.90;3.25;;;;;;;10.87;73.17;102048.66;5053365;28;20029;-65
2022/05/28 01:09:36;;;;;;;11.98;3.47;;;;;;;10.87;73.70;102044.19;5053158;28;20033;-64
2022/05/28 01:12:10;;;;;;;11.80;3.25;;;;;;;10.86;73.53;102039.84;5053085;28;20021;-65
2022/05/28 01:14:48;;;;;;;18.23;3.70;;;;;;;10.80;73.67;102034.34;5053079;28;20037;-64
2022/05/28 01:17:25;;;;;;;14.52;4.22;;;;;;;10.79;73.82;102038.00;5053076;28;20031;-65
2022/05/28 01:20:20;;;;;;;11.10;4.43;;;;;;;10.80;73.68;102037.84;5052647;28;20056;-65
2022/05/28 01:23:13;;;;;;;11.18;3.65;;;;;;;10.74;74.19;102039.34;5053326;28;20483;-65
2022/05/28 01:25:47;;;;;;;12.80;3.53;;;;;;;10.70;74.59;102032.69;5053042;28;20480;-65
2022/05/28 01:28:17;;;;;;;6.70;3.13;;;;;;;10.65;74.70;102042.19;5053045;28;20029;-65
2022/05/28 01:30:44;;;;;;;14.93;3.20;;;;;;;10.61;74.92;102041.72;5052919;28;20124;-65
2022/05/28 01:33:12;;;;;;;8.05;3.15;;;;;;;10.58;75.26;102046.53;5052841;28;20914;-65
2022/05/28 01:35:38;;;;;;;9.77;5.97;;;;;;;10.52;75.59;102042.69;5052731;28;20043;-65
2022/05/28 01:38:06;;;;;;;8.55;3.30;;;;;;;10.48;75.58;102039.53;5052764;28;20033;-65
2022/05/28 01:40:34;;;;;;;9.52;2.85;;;;;;;10.45;75.91;102039.03;5052731;28;20073;-65
2022/05/28 01:43:04;;;;;;;5.32;2.67;;;;;;;10.43;76.04;102044.53;5052758;28;20115;-70
2022/05/28 01:45:31;;;;;;;8.68;3.05;;;;;;;10.40;76.45;102038.69;5052487;28;20853;-69
2022/05/28 01:48:01;;;;;;;8.02;3.03;;;;;;;10.35;76.06;102036.53;5052217;28;20417;-70
2022/05/28 01:50:30;;;;;;;7.95;3.22;;;;;;;10.35;76.39;102036.53;5051799;28;20178;-69
2022/05/28 01:52:56;;;;;;;15.95;4.15;;;;;;;10.33;76.64;102040.38;5051287;28;20075;-70
2022/05/28 01:55:25;;;;;;;9.18;3.15;;;;;;;10.27;76.81;102037.34;5051038;28;20048;-69
2022/05/28 01:57:51;;;;;;;12.18;4.07;;;;;;;10.29;76.89;102039.84;5051290;28;20029;-69
2022/05/28 02:00:17;;;;;;;11.15;2.70;;;;;;;10.26;77.23;102038.31;5033135;28;20491;-69
2022/05/28 02:02:43;;;;;;;17.13;4.78;;;;;;;10.18;77.15;102032.16;5050523;28;20036;-70
2022/05/28 02:05:10;;;;;;;7.07;2.80;;;;;;;10.22;77.62;102044.16;5051102;28;20345;-69
2022/05/28 02:07:35;;;;;;;9.45;3.40;;;;;;;10.20;77.67;102048.81;5051069;28;20025;-69
2022/05/28 02:10:06;;;;;;;13.07;5.05;;;;;;;10.16;77.70;102048.28;5051002;28;20032;-70
2022/05/28 02:12:32;;;;;;;11.13;3.70;;;;;;;10.10;77.94;102047.13;5051024;28;20119;-69
2022/05/28 02:15:39;;;;;;;15.30;4.65;;;;;;;10.07;77.39;102035.97;5051135;28;20053;-70
2022/05/28 02:18:24;;;;;;;13.77;4.70;;;;;;;10.04;78.11;102037.13;4969656;28;20031;-70
2022/05/28 02:21:06;;;;;;;7.80;3.58;;;;;;;10.01;78.06;102042.78;5047670;28;20114;-69
2022/05/28 02:23:45;;;;;;;11.35;3.88;;;;;;;9.96;78.68;102037.13;5050846;28;20033;-69
2022/05/28 02:26:43;;;;;;;11.48;2.88;;;;;;;9.90;78.39;102037.75;5050870;28;20032;-69
2022/05/28 02:29:09;;;;;;;13.23;3.58;;;;;;;9.83;78.88;102028.75;5050894;28;20086;-70
2022/05/28 02:31:34;;;;;;;7.00;4.32;;;;;;;9.77;79.18;102022.25;5050701;28;20498;-70
2022/05/28 02:34:00;;;;;;;10.15;3.45;;;;;;;9.78;79.55;102023.09;5050633;28;20353;-70
2022/05/28 02:36:27;;;;;;;7.65;3.60;;;;;;;9.76;79.54;102027.72;5050662;28;20055;-70
2022/05/28 02:38:53;;;;;;;11.63;3.45;;;;;;;9.72;79.91;102019.25;5050665;28;20025;-70
2022/05/28 02:41:19;;;;;;;9.00;3.67;;;;;;;9.70;80.21;102017.72;5050692;28;20044;-69
2022/05/28 02:43:45;;;;;;;17.27;4.82;;;;;;;9.68;80.24;102025.88;5050480;28;20481;-70
2022/05/28 02:46:12;;;;;;;8.88;3.80;;;;;;;9.66;80.64;102015.38;5050590;28;20071;-69
2022/05/28 02:48:39;;;;;;;8.80;3.38;;;;;;;9.65;80.61;102010.22;5050468;28;20490;-69
2022/05/28 02:51:08;;;;;;;11.80;4.18;;;;;;;9.63;81.24;102012.19;5007847;28;1233702;-69
2022/05/28 02:53:33;;;;;;;12.35;4.47;;;;;;;9.64;81.09;102009.38;5051259;28;20029;-69
2022/05/28 02:55:59;;;;;;;12.05;3.38;;;;;;;9.63;81.34;102006.88;5051165;28;20051;-69
2022/05/28 02:58:25;;;;;;;9.65;4.38;;;;;;;9.59;81.56;102006.38;5051248;28;20154;-69
2022/05/28 03:00:51;;;;;;;11.20;3.17;;;;;;;9.57;81.82;102004.88;5051268;28;20060;-69
2022/05/28 03:03:19;;;;;;;11.10;3.95;;;;;;;9.56;82.02;102006.72;5051184;28;20460;-69
2022/05/28 03:05:49;;;;;;;11.73;3.78;;;;;;;9.55;82.56;102009.50;5033688;28;20090;-69
2022/05/28 03:08:15;;;;;;;11.50;3.38;;;;;;;9.53;82.40;102012.31;5050851;28;20032;-69
2022/05/28 03:10:40;;;;;;;8.23;4.18;;;;;;;9.52;82.49;102020.50;5050999;28;20139;-69
2022/05/28 03:13:06;;;;;;;10.35;3.30;;;;;;;9.49;82.48;102016.31;5057787;28;20024;-70
2022/05/28 03:15:32;;;;;;;11.40;3.72;;;;;;;9.44;82.87;102016.81;5059112;28;20021;-69
2022/05/28 03:17:59;;;;;;;8.57;3.08;;;;;;;9.47;82.66;102018.31;5051119;28;20112;-69
2022/05/28 03:20:26;;;;;;;12.27;3.35;;;;;;;9.48;83.00;102019.97;5050845;28;20143;-70
2022/05/28 03:22:51;;;;;;;6.97;2.80;;;;;;;9.47;82.99;102022.81;5050864;28;20029;-69
2022/05/28 03:25:17;;;;;;;10.65;3.67;;;;;;;9.46;83.36;102032.63;5050866;28;20043;-69
2022/05/28 03:27:42;;;;;;;15.13;3.75;;;;;;;9.44;83.29;102030.13;5050809;28;20033;-69
2022/05/28 03:30:08;;;;;;;7.90;3.15;;;;;;;9.46;83.47;102026.44;5050613;28;20033;-69
2022/05/28 03:32:34;;;;;;;10.80;4.00;;;;;;;9.45;83.45;102025.63;5050493;28;20037;-70
2022/05/28 03:34:59;;;;;;;13.93;4.00;;;;;;;9.44;83.44;102031.94;5050493;28;20116;-69
2022/05/28 03:37:24;;;;;;;7.68;4.03;;;;;;;9.43;83.48;102027.59;5050475;28;20025;-70
2022/05/28 03:39:49;;;;;;;11.13;3.47;;;;;;;9.39;83.71;102031.59;5050390;28;20052;-69
2022/05/28 03:42:15;;;;;;;17.50;3.15;;;;;;;9.40;84.30;102027.91;5050207;28;20426;-69
2022/05/28 03:44:40;;;;;;;9.25;4.22;;;;;;;9.39;84.18;102032.41;5050201;28;20017;-69
2022/05/28 03:47:07;;;;;;;8.10;3.08;;;;;;;9.32;84.06;102025.22;5050316;28;20037;-69
2022/05/28 03:49:35;;;;;;;8.75;3.88;;;;;;;9.34;84.60;102034.72;5050100;28;20033;-69
2022/05/28 03:52:01;;;;;;;7.82;3.58;;;;;;;9.33;84.84;102033.06;5050036;28;20440;-70
2022/05/28 03:54:27;;;;;;;11.45;3.10;;;;;;;9.34;84.72;102031.22;5050000;28;20507;-70
2022/05/28 03:56:58;;;;;;;11.32;3.47;;;;;;;9.30;85.26;102029.88;5050149;28;20064;-70
2022/05/28 03:59:23;;;;;;;9.82;3.50;;;;;;;9.37;85.27;102036.22;5050157;28;20562;-69
2022/05/28 04:01:48;;;;;;;13.70;3.33;;;;;;;9.40;85.27;102027.91;5050126;28;20029;-69
2022/05/28 04:04:14;;;;;;;6.85;3.45;;;;;;;9.37;85.13;102034.41;5050082;28;20465;-69
2022/05/28 04:06:39;;;;;;;9.70;2.95;;;;;;;9.45;85.26;102036.28;5049982;28;20040;-69
2022/05/28 04:09:06;;;;;;;7.22;2.97;;;;;;;9.48;85.21;102046.59;5049977;28;20480;-69
2022/05/28 04:11:32;;;;;;;17.63;3.97;;;;;;;9.52;85.23;102045.28;5049995;28;20098;-70
2022/05/28 04:13:57;;;;;;;11.48;4.60;;;;;;;9.52;85.97;102045.28;5049844;28;20050;-70
2022/05/28 04:16:24;;;;;;;8.73;2.83;;;;;;;9.60;86.13;102047.16;5032003;28;20373;-69
2022/05/28 04:18:50;;;;;;;10.65;2.80;;;;;;;9.61;85.86;102046.97;5049742;28;20120;-69
2022/05/28 04:21:15;;;;;;;7.43;2.78;;;;;;;9.63;85.90;102034.34;5068855;28;20108;-69
2022/05/28 04:23:40;;;;;;;7.75;3.42;;;;;;;9.66;86.22;102036.69;5068862;28;20062;-69
2022/05/28 04:26:06;;;;;;;6.45;2.60;;;;;;;9.75;86.47;102045.56;5068525;28;20028;-69
2022/05/28 04:28:31;;;;;;;12.35;3.40;;;;;;;9.78;86.23;102052.38;5068975;28;20070;-70
2022/05/28 04:30:57;;;;;;;13.00;3.72;;;;;;;9.82;86.86;102043.91;5068888;28;20056;-69
2022/05/28 04:33:23;;;;;;;12.00;3.70;;;;;;;9.91;87.30;102042.09;5068851;28;20513;-70
2022/05/28 04:35:48;;;;;;;8.82;3.58;;;;;;;10.14;87.68;102057.44;5068618;28;20072;-69
2022/05/28 04:38:14;;;;;;;11.82;2.78;;;;;;;10.28;87.78;102055.00;5068748;28;20037;-70
2022/05/28 04:40:39;;;;;;;8.10;3.30;;;;;;;10.56;87.28;102062.72;5068690;28;20028;-69
2022/05/28 04:43:05;;;;;;;8.32;2.28;;;;;;;10.75;86.52;102064.19;5068504;28;20028;-70
2022/05/28 04:45:31;;;;;;;9.10;3.22;;;;;;;10.84;85.66;102059.69;5068647;28;20644;-70
2022/05/28 04:47:56;;;;;;;8.35;1.80;;;;;;;10.93;85.73;102064.84;5068666;28;20033;-70
2022/05/28 04:50:21;;;;;;;13.20;2.83;;;;;;;11.02;85.28;102063.00;5068523;28;20048;-70
2022/05/28 04:52:47;;;;;;;10.50;2.50;;;;;;;11.12;85.13;102058.31;5068723;28;20028;-70
2022/05/28 04:55:12;;;;;;;8.77;2.20;;;;;;;11.20;84.82;102054.78;5068446;28;20873;-69
2022/05/28 04:57:38;;;;;;;13.98;3.78;;;;;;;11.32;84.26;102061.44;5068577;28;20028;-70
2022/05/28 05:00:14;;;;;;;7.10;1.92;;;;;;;11.45;84.28;102065.38;5068608;28;20039;-70
2022/05/28 05:02:39;;;;;;;7.72;2.25;;;;;;;11.57;83.69;102056.81;5068319;28;20071;-70
2022/05/28 05:05:05;;;;;;;7.75;2.30;;;;;;;11.72;83.33;102062.28;5068455;28;20471;-69
2022/05/28 05:07:31;;;;;;;14.32;2.97;;;;;;;11.88;82.48;102069.41;5068399;28;20047;-70
2022/05/28 05:09:56;;;;;;;7.97;3.33;;;;;;;11.95;82.14;102074.91;5068410;28;20028;-70
2022/05/28 05:12:22;;;;;;;10.13;2.70;;;;;;;11.96;81.35;102071.19;5068430;28;20071;-70
2022/05/28 05:14:47;;;;;;;10.27;2.45;;;;;;;11.97;80.49;102076.38;5068149;28;20036;-69
2022/05/28 05:17:13;;;;;;;13.05;2.70;;;;;;;12.01;80.33;102079.53;5068375;28;20067;-69
2022/05/28 05:19:38;;;;;;;11.27;1.73;;;;;;;12.02;78.80;102076.66;5068372;28;20025;-70
2022/05/28 05:22:04;;;;;;;8.90;2.78;;;;;;;12.07;78.56;102074.28;5068213;28;20028;-70
2022/05/28 05:24:29;;;;;;;8.18;1.95;;;;;;;12.11;78.22;102074.78;5068398;28;20033;-70
2022/05/28 05:26:55;;;;;;;13.57;2.55;;;;;;;12.18;77.57;102080.25;5049082;28;20123;-70
2022/05/28 05:29:20;;;;;;;5.32;1.55;;;;;;;12.22;76.70;102082.41;5048664;28;20043;-69
2022/05/28 05:31:46;;;;;;;11.85;2.47;;;;;;;12.25;76.38;102083.91;5049083;28;20029;-70
2022/05/28 05:34:11;;;;;;;8.52;2.17;;;;;;;12.32;75.96;102084.84;5031110;28;20071;-70
2022/05/28 05:36:36;;;;;;;9.40;2.10;;;;;;;12.34;75.78;102085.53;5049103;28;20155;-70
2022/05/28 05:39:02;;;;;;;5.53;2.40;;;;;;;12.40;75.87;102089.31;5052188;28;20036;-70
2022/05/28 05:41:28;;;;;;;8.88;2.65;;;;;;;12.45;75.73;102081.59;5052669;28;20029;-70
2022/05/28 05:43:53;;;;;;;9.40;2.10;;;;;;;12.53;74.92;102084.19;5052946;28;20033;-70
2022/05/28 05:46:19;;;;;;;6.35;1.80;;;;;;;12.57;74.35;102084.66;5052897;28;20036;-70
2022/05/28 05:48:44;;;;;;;10.27;2.55;;;;;;;12.58;72.71;102094.38;5052578;28;20036;-70
2022/05/28 05:51:13;;;;;;;2.78;1.20;;;;;;;12.55;72.74;102086.69;5052294;28;20107;-70
2022/05/28 05:53:39;;;;;;;6.13;0.98;;;;;;;12.54;70.68;102095.75;5052463;28;20039;-69
2022/05/28 05:56:05;;;;;;;9.10;2.88;;;;;;;12.51;70.94;102096.94;5052254;28;20174;-70
2022/05/28 05:58:30;;;;;;;6.15;1.25;;;;;;;12.52;71.63;102093.22;5052333;28;20032;-70
2022/05/28 06:00:55;;;;;;;5.20;2.05;;;;;;;12.52;70.35;102097.75;5052273;28;20029;-71
2022/05/28 06:03:21;;;;;;;10.23;2.53;;;;;;;12.51;70.65;102099.59;5052219;28;20032;-70
2022/05/28 06:05:47;;;;;;;6.88;1.30;;;;;;;12.49;70.29;102098.94;5052251;28;20038;-70
2022/05/28 06:08:15;;;;;;;6.55;1.65;;;;;;;12.55;70.88;102094.72;5052216;28;20029;-70
2022/05/28 06:10:42;;;;;;;5.55;2.08;;;;;;;12.67;71.46;102104.00;5052080;28;20029;-70
2022/05/28 06:13:07;;;;;;;9.20;2.30;;;;;;;12.72;69.08;102104.28;5071285;28;20415;-70
2022/05/28 06:15:32;;;;;;;4.82;1.55;;;;;;;12.75;70.54;102097.75;5071068;28;20028;-70
2022/05/28 06:17:58;;;;;;;5.88;1.27;;;;;;;12.74;71.32;102104.94;5071206;28;20044;-70
2022/05/28 06:20:23;;;;;;;7.28;1.63;;;;;;;12.69;71.03;102100.13;5071080;28;20391;-70
2022/05/28 06:22:48;;;;;;;3.92;1.33;;;;;;;12.70;69.88;102098.28;5071109;28;20071;-70
2022/05/28 06:25:14;;;;;;;10.85;2.15;;;;;;;12.70;69.01;102103.63;5071197;28;20054;-70
2022/05/28 06:27:39;;;;;;;7.38;1.88;;;;;;;12.68;70.36;102108.31;5070938;28;20032;-70
2022/05/28 06:30:05;;;;;;;2.85;1.65;;;;;;;12.72;69.58;102110.47;5071043;28;20025;-70
2022/05/28 06:32:30;;;;;;;8.38;1.42;;;;;;;12.78;68.90;102114.25;5070985;28;20040;-71
2022/05/28 06:34:56;;;;;;;5.93;1.33;;;;;;;12.83;68.53;102111.88;5070715;28;20078;-70
2022/05/28 06:37:21;;;;;;;5.72;1.55;;;;;;;12.86;66.58;102116.91;5070894;28;20060;-69
2022/05/28 06:39:47;;;;;;;5.07;1.30;;;;;;;12.98;67.69;102119.97;5062087;28;20377;-70
2022/05/28 06:42:12;;;;;;;6.38;1.48;;;;;;;12.96;65.89;102119.31;5051388;28;20120;-71
2022/05/28 06:44:38;;;;;;;4.93;2.15;;;;;;;12.95;66.08;102128.38;5033536;28;20053;-68
2022/05/28 06:47:04;;;;;;;5.70;1.50;;;;;;;12.85;64.82;102122.44;5051441;28;20040;-70
2022/05/28 06:49:31;;;;;;;1.30;0.82;;;;;;;12.73;65.15;102124.69;5050039;28;20029;-70
2022/05/28 06:51:56;;;;;;;3.65;1.25;;;;;;;12.64;63.96;102121.25;5051356;28;20025;-70
2022/05/28 06:54:21;;;;;;;1.52;1.10;;;;;;;12.58;65.09;102126.50;5051164;28;20094;-70
2022/05/28 06:56:46;;;;;;;2.60;1.08;;;;;;;12.55;65.71;102126.81;5051362;28;20087;-69
2022/05/28 06:59:12;;;;;;;4.28;1.95;;;;;;;12.49;65.58;102129.19;5051411;28;20037;-70
2022/05/28 07:01:37;;;;;;;4.00;1.05;;;;;;;12.48;65.80;102132.06;5051156;28;20025;-67
2022/05/28 07:04:04;;;;;;;6.50;1.40;;;;;;;12.48;64.81;102135.56;5051121;28;20052;-70
2022/05/28 07:06:31;;;;;;;2.42;0.90;;;;;;;12.53;65.68;102128.88;5051138;28;20031;-70
2022/05/28 07:08:57;;;;;;;5.63;1.17;;;;;;;12.58;64.35;102129.16;5051115;28;20451;-70
2022/05/28 07:11:23;;;;;;;6.18;1.63;;;;;;;12.65;64.98;102135.44;5051031;28;20147;-70
2022/05/28 07:13:49;;;;;;;4.80;1.70;;;;;;;12.74;66.01;102131.72;5050856;28;20068;-70
2022/05/28 07:16:14;;;;;;;4.63;1.25;;;;;;;12.80;64.27;102133.66;5050658;28;20041;-69
2022/05/28 07:18:40;;;;;;;7.18;1.08;;;;;;;12.82;62.01;102139.69;5050909;28;20041;-70
2022/05/28 07:21:07;;;;;;;11.73;1.63;;;;;;;12.90;61.98;102133.44;5050971;28;20037;-70
2022/05/28 07:23:33;;;;;;;6.45;1.88;;;;;;;12.97;62.67;102136.19;5050852;28;20033;-69
2022/05/28 07:26:11;;;;;;;5.47;1.20;;;;;;;13.05;61.10;102138.84;5050758;28;20017;-69
2022/05/28 07:28:39;;;;;;;10.75;2.17;;;;;;;13.06;59.83;102127.09;5050753;28;20075;-69
2022/05/28 07:31:11;;;;;;;6.55;1.58;;;;;;;13.16;59.39;102127.66;5050614;28;20480;-69
2022/05/28 07:33:42;;;;;;;1.30;0.93;;;;;;;13.24;59.18;102132.94;5050524;28;20033;-68
2022/05/28 07:36:10;;;;;;;5.23;1.57;;;;;;;13.39;60.28;102133.00;5069347;28;20020;-69
2022/05/28 07:38:36;;;;;;;1.08;0.80;;;;;;;13.54;59.47;102127.63;5066572;28;20024;-71
2022/05/28 07:41:07;;;;;;;7.38;2.00;;;;;;;13.70;59.95;102137.31;5055194;28;20942;-69
2022/05/28 07:43:34;;;;;;;5.27;1.60;;;;;;;13.84;60.69;102131.13;5060441;28;20041;-71
2022/05/28 07:45:59;;;;;;;3.72;1.08;;;;;;;14.03;60.89;102129.72;5056397;28;20391;-71
2022/05/28 07:48:25;;;;;;;5.32;1.15;;;;;;;14.19;58.97;102128.66;5062639;28;20033;-70
2022/05/28 07:50:50;;;;;;;6.97;1.17;;;;;;;14.23;59.85;102130.78;5049651;28;20554;-69
2022/05/28 07:53:16;;;;;;;6.38;1.73;;;;;;;14.08;57.97;102131.84;5050224;28;20040;-69
2022/05/28 07:55:41;;;;;;;4.30;1.15;;;;;;;13.87;59.04;102136.13;5049953;28;20086;-69
2022/05/28 07:58:12;;;;;;;7.93;1.52;;;;;;;13.71;57.35;102139.84;5050176;28;20429;-69
2022/05/28 08:00:41;;;;;;;4.70;1.20;;;;;;;13.62;58.27;102129.38;5049762;28;20025;-69
2022/05/28 08:03:07;;;;;;;4.40;1.13;;;;;;;13.64;57.83;102128.19;5050077;28;20028;-69
2022/05/28 08:05:34;;;;;;;2.13;1.23;;;;;;;13.70;58.12;102143.56;5050088;28;20025;-69
2022/05/28 08:07:59;;;;;;;7.95;1.60;;;;;;;13.62;57.29;102121.34;5049969;28;20039;-69
2022/05/28 08:10:24;;;;;;;4.18;0.80;;;;;;;13.68;57.28;102142.06;5049965;28;20040;-69
2022/05/28 08:12:50;;;;;;;2.13;1.15;;;;;;;13.64;57.15;102133.53;5049844;28;20154;-70
2022/05/28 08:15:16;;;;;;;5.75;2.28;;;;;;;15.70;54.20;102135.56;5050471;28;20029;-70
2022/05/28 08:17:41;;;;;;;5.38;1.50;;;;;;;18.21;47.58;102131.41;5050474;28;20041;-70
2022/05/28 08:20:07;;;;;;;4.97;0.90;;;;;;;19.93;44.22;102127.22;5031649;28;20174;-70
2022/05/28 08:25:17;;;;;;;2.85;1.00;;;;;;;23.50;36.36;102113.19;5034788;28;20086;-70
2022/05/28 08:27:42;;;;;;;5.80;1.52;;;;;;;24.45;33.02;102108.28;5049569;28;20024;-70
2022/05/28 08:30:08;;;;;;;4.93;1.95;;;;;;;25.47;31.50;102110.09;5049383;28;20159;-70
2022/05/28 08:32:33;;;;;;;10.70;4.13;;;;;;;25.87;29.06;102114.09;5048828;28;20029;-70
2022/05/28 08:34:59;;;;;;;5.75;0.80;;;;;;;26.21;28.48;102108.97;5049171;28;20025;-70
2022/05/28 08:37:24;;;;;;;10.38;1.50;;;;;;;25.86;29.32;102117.88;5049574;28;20487;-70
2022/05/28 08:39:50;;;;;;;2.80;1.17;;;;;;;25.55;28.91;102110.38;5049543;28;20033;-70
2022/05/28 08:42:15;;;;;;;3.53;1.67;;;;;;;26.27;28.21;102107.88;5049379;28;20190;-71
2022/05/28 08:44:42;;;;;;;1.83;0.85;;;;;;;25.58;27.01;102114.50;5049622;28;20037;-70
2022/05/28 08:47:23;;;;;;;4.00;1.08;;;;;;;24.82;30.10;102112.13;5049580;28;20047;-70
2022/05/28 08:49:50;;;;;;;12.33;1.17;;;;;;;23.59;30.01;102105.41;5049411;28;20041;-70
2022/05/28 08:52:34;;;;;;;3.60;1.15;;;;;;;22.41;31.94;102114.50;5048965;28;20368;-70
2022/05/28 08:55:05;;;;;;;3.60;1.63;;;;;;;23.00;30.70;102102.41;5048664;28;20054;-69
2022/05/28 08:57:53;;;;;;;3.75;1.33;;;;;;;22.37;33.80;102118.75;5049234;28;20024;-69
2022/05/28 09:00:46;;;;;;;6.45;1.27;;;;;;;20.67;35.68;102112.66;5049335;28;20032;-70
2022/05/28 09:03:23;;;;;;;5.88;1.27;;;;;;;19.76;37.00;102115.38;5049218;28;20029;-70
2022/05/28 09:06:14;;;;;;;5.05;1.42;;;;;;;18.95;39.32;102108.28;5049270;28;20067;-69
2022/05/28 09:08:45;;;;;;;8.20;1.83;;;;;;;18.08;41.77;102113.44;5048979;28;20029;-70
2022/05/28 09:11:31;;;;;;;3.00;1.30;;;;;;;17.49;43.38;102123.38;5053104;28;20083;-66
2022/05/28 09:13:58;;;;;;;3.33;1.60;;;;;;;17.21;44.46;102118.25;5071216;28;20128;-66
2022/05/28 09:16:31;;;;;;;2.25;1.15;;;;;;;17.03;44.01;102111.66;5072165;28;20388;-66
2022/05/28 09:19:03;;;;;;;3.92;1.52;;;;;;;16.99;43.78;102113.09;5071889;28;20052;-66
2022/05/28 09:21:29;;;;;;;4.47;2.13;;;;;;;16.98;41.61;102118.69;5072082;28;20119;-66
2022/05/28 09:23:54;;;;;;;2.53;1.55;;;;;;;16.99;43.54;102114.97;5072084;28;20123;-66
2022/05/28 09:26:31;;;;;;;2.47;1.08;;;;;;;16.85;43.31;102112.28;5072197;28;20482;-65
2022/05/28 09:29:23;;;;;;;4.50;1.88;;;;;;;16.36;45.92;102107.22;5072020;28;20032;-66
2022/05/28 09:32:01;;;;;;;2.65;1.40;;;;;;;16.18;47.04;102100.53;5071715;28;20403;-66
2022/05/28 09:35:09;;;;;;;5.22;1.60;;;;;;;16.30;47.44;102103.47;5071762;28;20025;-66
2022/05/28 09:37:52;;;;;;;13.20;1.70;;;;;;;16.39;45.42;102096.84;5023036;28;20108;-65
2022/05/28 09:40:20;;;;;;;10.13;2.05;;;;;;;16.53;43.68;102104.94;5071892;28;20021;-65
2022/05/28 09:43:12;;;;;;;6.13;1.63;;;;;;;16.48;45.17;102104.72;5071486;28;20111;-66
2022/05/28 09:45:55;;;;;;;2.38;1.20;;;;;;;16.65;43.40;102100.63;5060726;28;20602;-66
2022/05/28 09:48:26;;;;;;;3.22;0.82;;;;;;;16.74;43.49;102096.69;5071681;28;20277;-65
2022/05/28 09:50:52;;;;;;;3.45;1.88;;;;;;;16.84;44.34;102096.28;5071345;28;20730;-66
2022/05/28 09:56:36;;;;;;;8.13;1.92;;;;;;;17.05;46.28;102090.69;5029252;28;20125;-65
2022/05/28 09:59:17;;;;;;;2.85;1.13;;;;;;;16.87;42.86;102109.34;5046082;28;20044;-65
2022/05/28 10:01:52;;;;;;;8.18;2.83;;;;;;;16.76;44.24;102100.00;5052315;28;20041;-65
2022/05/28 10:04:29;;;;;;;2.10;1.10;;;;;;;16.91;42.84;102096.31;5051782;28;20055;-65
2022/05/28 10:06:57;;;;;;;2.40;1.20;;;;;;;16.88;42.81;102091.34;5034119;28;20159;-65
2022/05/28 10:09:33;;;;;;;4.60;1.27;;;;;;;16.78;42.95;102083.66;5051929;28;20112;-65
2022/05/28 10:12:10;;;;;;;5.07;3.08;;;;;;;16.80;42.00;102085.13;5052224;28;20954;-65
2022/05/28 10:14:35;;;;;;;3.50;1.48;;;;;;;16.72;41.09;102081.78;5051517;28;20036;-65
2022/05/28 10:17:04;;;;;;;2.78;0.88;;;;;;;16.46;42.24;102094.19;5051991;28;20025;-65
2022/05/28 10:19:43;;;;;;;2.65;1.10;;;;;;;16.36;41.83;102083.81;5051858;28;20066;-65
2022/05/28 10:22:17;;;;;;;11.85;2.20;;;;;;;16.39;42.16;102082.56;5057770;28;20013;-66
2022/05/28 10:24:48;;;;;;;3.47;1.08;;;;;;;16.68;41.33;102083.22;5029903;28;20618;-66
2022/05/28 10:27:31;;;;;;;4.68;1.27;;;;;;;16.78;40.23;102086.34;5029322;28;20629;-65
2022/05/28 10:30:02;;;;;;;3.50;1.30;;;;;;;16.84;40.76;102077.44;5058067;28;20029;-73
2022/05/28 10:32:33;;;;;;;5.25;1.15;;;;;;;16.92;40.18;102088.00;5058501;28;20071;-71
2022/05/28 10:35:16;;;;;;;6.20;1.45;;;;;;;16.97;41.49;102074.72;5058240;28;20032;-71
2022/05/28 10:37:42;;;;;;;3.15;0.70;;;;;;;16.98;37.75;102080.97;5058886;28;20461;-72
2022/05/28 10:40:10;;;;;;;4.03;1.45;;;;;;;17.05;38.17;102081.75;5058479;28;20082;-72
2022/05/28 10:42:37;;;;;;;3.30;1.25;;;;;;;17.06;36.50;102086.13;5058026;28;20036;-71
2022/05/28 10:45:05;;;;;;;6.18;2.92;;;;;;;17.01;39.68;102086.75;5058798;28;20048;-72
2022/05/28 10:47:36;;;;;;;2.50;1.00;;;;;;;17.22;39.86;102082.16;5058209;28;20021;-73
2022/05/28 10:50:11;;;;;;;4.03;1.48;;;;;;;17.46;41.05;102070.69;5057285;28;20132;-71
2022/05/28 10:52:53;;;;;;;5.75;0.95;;;;;;;17.44;39.32;102069.25;5065997;28;20391;-70
2022/05/28 10:56:00;;;;;;;2.50;0.70;;;;;;;17.55;39.86;102070.44;5070442;28;20041;-71
2022/05/28 10:58:46;;;;;;;4.93;1.67;;;;;;;17.27;39.55;102063.50;5032460;28;20072;-72
2022/05/28 11:01:22;;;;;;;6.32;1.60;;;;;;;16.90;39.11;102073.94;5070295;28;20032;-72
2022/05/28 11:04:15;;;;;;;2.85;1.08;;;;;;;16.50;39.31;102073.06;5070209;28;20159;-72
2022/05/28 11:07:05;;;;;;;2.63;1.10;;;;;;;16.40;42.27;102068.91;5070286;28;20034;-71
2022/05/28 11:09:40;;;;;;;2.95;1.20;;;;;;;16.59;42.67;102061.88;5050817;28;20021;-71
2022/05/28 11:12:40;;;;;;;3.35;1.10;;;;;;;16.50;43.61;102073.06;5056295;28;20036;-71
2022/05/28 11:15:15;;;;;;;5.70;1.52;;;;;;;16.50;43.64;102083.81;5069937;28;20499;-72
2022/05/28 11:17:59;;;;;;;5.10;2.03;;;;;;;16.81;44.42;102067.06;5069781;28;20123;-72
2022/05/28 11:20:41;;;;;;;2.53;1.17;;;;;;;17.12;41.47;102066.41;5069979;28;20031;-72
2022/05/28 11:23:16;;;;;;;;;;;;;;;17.41;42.51;102067.78;5070264;28;20032;-71
2022/05/28 11:26:11;;;;;;;7.38;1.45;;;;;;;17.18;41.74;102059.34;5069878;28;19955;-71
2022/05/28 11:28:48;;;;;;;3.33;1.23;;;;;;;16.72;40.21;102069.13;5065556;28;20044;-72
2022/05/28 11:31:27;;;;;;;6.60;1.83;;;;;;;16.54;40.21;102060.84;5069738;28;20033;-71
2022/05/28 11:33:54;;;;;;;5.97;1.13;;;;;;;16.57;41.18;102046.97;5069804;28;20472;-72
2022/05/28 11:36:42;;;;;;;7.05;1.23;;;;;;;16.98;41.62;102049.44;5068890;28;20037;-72
2022/05/28 11:39:16;;;;;;;5.65;1.33;;;;;;;17.34;41.01;102041.88;5069755;28;20032;-72
2022/05/28 11:41:47;;;;;;;5.18;1.70;;;;;;;17.19;40.29;102037.59;5069456;28;20024;-70